In Rescue
 
Open Full Screen Window  High Contrast Mode
Wind Gusting 00 knots
08
March 19, 2019 5:53 PM CDT
Weather Information
Wind Direction
  220 °
Wind Speed
  08 kt (9 mph)
Wind Gust
  00 kt (0 mph)
Altimeter
30.14 in
Visibility
10 SM
Temperature
08° C
46° F
Dewpoint
-01° C
30° F
Humidity
53%
1hr Rain Fall
00.00 in.
24hr Rain Fall
00.00 in.
Sky Condition
Clear
VFR

METAR KSGS 192253Z AUTO 22008KT 10SM CLR 08/M01 A3014 RMK AO2 T00781006

FAA Disclaimer: The data displayed is for advisory purposes only and is not to be used for flight planning or operations.